Time;durP1;ratioP1;P1;durP2;ratioP2;P2;SDS_P1;SDS_P2;PMS_P1;PMS_P2;Temp;Humidity;BMP_temperature;BMP_pressure;BME280_temperature;BME280_humidity;BME280_pressure;Samples;Min_cycle;Max_cycle;Signal;HPM_P1;HPM_P2
2022/12/13 00:01:20;;;;;;;56.17;46.13;;;;;;;-4.20;100.00;101301.47;5094140;28;20476;-44
2022/12/13 00:03:48;;;;;;;64.83;46.07;;;;;;;-4.19;100.00;101299.69;5093876;28;20440;-47
2022/12/13 00:06:17;;;;;;;59.93;48.70;;;;;;;-4.19;100.00;101297.09;5093381;28;20473;-45
2022/12/13 00:08:45;;;;;;;59.33;46.37;;;;;;;-4.22;100.00;101305.94;5094299;28;20437;-44
2022/12/13 00:11:14;;;;;;;58.03;45.97;;;;;;;-4.22;100.00;101305.94;5094001;28;20435;-47
2022/12/13 00:13:42;;;;;;;60.00;47.13;;;;;;;-4.19;100.00;101304.91;5094011;28;20796;-45
2022/12/13 00:16:12;;;;;;;58.13;48.27;;;;;;;-4.15;100.00;101314.22;5093101;28;20461;-44
2022/12/13 00:18:40;;;;;;;72.53;51.00;;;;;;;-4.11;100.00;101307.91;5093686;28;20487;-47
2022/12/13 00:21:09;;;;;;;60.60;47.77;;;;;;;-4.05;100.00;101312.75;5093941;28;20465;-44
2022/12/13 00:23:38;;;;;;;60.60;47.60;;;;;;;-4.04;100.00;101315.28;5093901;28;20563;-47
2022/12/13 00:26:09;;;;;;;67.23;46.93;;;;;;;-3.99;100.00;101315.00;5093074;28;20468;-51
2022/12/13 00:28:37;;;;;;;62.00;47.73;;;;;;;-3.96;100.00;101307.84;5093566;28;21035;-45
2022/12/13 00:31:05;;;;;;;56.43;46.30;;;;;;;-3.93;100.00;101314.63;5093945;28;20433;-44
2022/12/13 00:33:53;;;;;;;55.33;48.90;;;;;;;-3.87;100.00;101303.00;5093819;28;20418;-45
2022/12/13 00:36:21;;;;;;;65.43;44.50;;;;;;;-3.82;100.00;101296.59;5092687;28;20461;-46
2022/12/13 00:38:59;;;;;;;66.53;47.10;;;;;;;-3.76;100.00;101301.44;5093528;28;20871;-44
2022/12/13 00:41:29;;;;;;;63.93;46.83;;;;;;;-3.71;100.00;101298.56;5093645;28;20813;-44
2022/12/13 00:43:57;;;;;;;69.90;47.40;;;;;;;-3.66;100.00;101293.91;5093478;28;20509;-47
2022/12/13 00:46:25;;;;;;;69.10;51.73;;;;;;;-3.62;100.00;101290.19;5092457;28;20461;-45
2022/12/13 00:48:55;;;;;;;75.57;51.83;;;;;;;-3.61;100.00;101287.47;5093438;28;20933;-45
2022/12/13 00:51:24;;;;;;;49.37;44.37;;;;;;;-3.60;100.00;101290.94;5093143;28;20440;-51
2022/12/13 00:53:54;;;;;;;63.30;45.17;;;;;;;-3.58;100.00;101294.28;5093178;28;20425;-45
2022/12/13 00:56:25;;;;;;;57.07;47.07;;;;;;;-3.54;100.00;101293.16;5092350;28;20457;-46
2022/12/13 00:58:54;;;;;;;57.97;44.60;;;;;;;-3.52;100.00;101288.69;5093205;28;20437;-47
2022/12/13 01:01:24;;;;;;;64.40;46.70;;;;;;;-3.52;100.00;101278.25;5093006;28;20984;-45
2022/12/13 01:03:53;;;;;;;57.57;45.37;;;;;;;-3.51;100.00;101285.16;5093030;28;20430;-45
2022/12/13 01:06:26;;;;;;;53.67;46.57;;;;;;;-3.49;100.00;101280.69;5092020;28;20472;-44
2022/12/13 01:08:55;;;;;;;72.33;47.87;;;;;;;-3.51;100.00;101278.19;5093114;28;20520;-44
2022/12/13 01:11:22;;;;;;;66.50;46.90;;;;;;;-3.48;100.00;101274.53;5092894;28;20436;-47
2022/12/13 01:13:50;;;;;;;63.47;47.93;;;;;;;-3.45;100.00;101270.00;5092860;28;20793;-44
2022/12/13 01:16:18;;;;;;;59.20;48.33;;;;;;;-3.41;100.00;101265.44;5091889;28;20457;-44
2022/12/13 01:18:47;;;;;;;66.57;50.50;;;;;;;-3.40;100.00;101265.31;5090043;28;20464;-47
2022/12/13 01:21:16;;;;;;;67.80;50.90;;;;;;;-3.36;100.00;101260.75;5092735;28;20465;-44
2022/12/13 01:23:45;;;;;;;70.10;47.30;;;;;;;-3.34;100.00;101263.28;5092714;28;20479;-46
2022/12/13 01:26:16;;;;;;;64.33;47.47;;;;;;;-3.31;100.00;101271.72;5091964;28;20848;-44
2022/12/13 01:28:44;;;;;;;61.03;48.20;;;;;;;-3.27;100.00;101267.16;5092477;28;20430;-47
2022/12/13 01:31:14;;;;;;;67.93;50.63;;;;;;;-3.27;100.00;101267.16;5092324;28;20432;-47
2022/12/13 01:33:43;;;;;;;64.43;49.40;;;;;;;-3.25;100.00;101273.97;5092650;28;20457;-47
2022/12/13 01:36:14;;;;;;;67.10;50.13;;;;;;;-3.24;100.00;101272.19;5091751;28;20461;-45
2022/12/13 01:38:42;;;;;;;59.10;51.90;;;;;;;-3.24;100.00;101272.19;5092450;28;20429;-45
2022/12/13 01:41:13;;;;;;;69.27;49.23;;;;;;;-3.24;100.00;101267.81;5092214;28;20480;-46
2022/12/13 01:43:55;;;;;;;69.27;52.40;;;;;;;-3.23;100.00;101263.44;5092200;28;20425;-45
2022/12/13 01:46:23;;;;;;;68.33;49.90;;;;;;;-3.25;100.00;101268.75;5091342;28;20456;-46
2022/12/13 01:48:58;;;;;;;62.23;46.20;;;;;;;-3.26;100.00;101263.63;5092328;28;20429;-45
2022/12/13 01:51:29;;;;;;;67.00;48.33;;;;;;;-3.28;100.00;101261.09;5092201;28;20503;-46
2022/12/13 01:54:01;;;;;;;72.93;51.40;;;;;;;-3.29;100.00;101266.44;5092112;28;20443;-45
2022/12/13 01:56:33;;;;;;;69.57;46.07;;;;;;;-3.29;100.00;101267.28;5091190;28;20464;-47
2022/12/13 01:59:04;;;;;;;63.97;48.37;;;;;;;-3.27;100.00;101257.56;5092248;28;20796;-45
2022/12/13 02:01:33;;;;;;;59.67;43.30;;;;;;;-3.25;100.00;101260.06;5091582;28;20495;-44
2022/12/13 02:04:00;;;;;;;55.90;47.83;;;;;;;-3.25;100.00;101260.91;5091963;28;20471;-44
2022/12/13 02:06:33;;;;;;;67.93;48.53;;;;;;;-3.23;100.00;101266.91;5091087;28;20462;-45
2022/12/13 02:09:02;;;;;;;60.20;46.57;;;;;;;-3.24;100.00;101260.00;5092135;28;20946;-44
2022/12/13 02:11:30;;;;;;;57.67;45.70;;;;;;;-3.23;100.00;101263.44;5091981;28;20430;-44
2022/12/13 02:13:58;;;;;;;57.63;46.37;;;;;;;-3.22;100.00;101259.88;5091772;28;20974;-44
2022/12/13 02:16:41;;;;;;;61.83;46.00;;;;;;;-3.23;100.00;101256.47;5091033;28;20457;-46
2022/12/13 02:19:38;;;;;;;79.27;50.40;;;;;;;-3.22;100.00;101252.91;5089045;28;20421;-48
2022/12/13 02:22:22;;;;;;;72.23;51.30;;;;;;;-3.23;100.00;101250.41;5070072;28;20872;-47
2022/12/13 02:25:04;;;;;;;69.00;50.00;;;;;;;-3.24;100.00;101246.09;5070951;28;20433;-43
2022/12/13 02:27:50;;;;;;;67.47;49.40;;;;;;;-3.24;100.00;101249.56;5071188;28;20576;-47
2022/12/13 02:30:34;;;;;;;70.23;50.13;;;;;;;-3.23;100.00;101250.41;5071501;28;20438;-43
2022/12/13 02:33:20;;;;;;;62.80;47.27;;;;;;;-3.20;100.00;101248.44;5071455;28;20429;-43
2022/12/13 02:35:55;;;;;;;73.83;51.40;;;;;;;-3.19;100.00;101244.03;5070614;28;20462;-43
2022/12/13 02:38:29;;;;;;;60.77;47.70;;;;;;;-3.18;100.00;101236.13;5071452;28;20761;-44
2022/12/13 02:41:05;;;;;;;54.90;46.03;;;;;;;-3.17;100.00;101243.03;5071524;28;20444;-45
2022/12/13 02:43:37;;;;;;;69.43;47.60;;;;;;;-3.17;100.00;101235.22;5071361;28;20474;-43
2022/12/13 02:46:16;;;;;;;73.97;48.93;;;;;;;-3.18;100.00;101243.97;5070500;28;20462;-45
2022/12/13 02:48:46;;;;;;;65.97;50.07;;;;;;;-3.20;100.00;101256.28;5106200;22;20905;-48
2022/12/13 02:51:16;;;;;;;68.90;50.00;;;;;;;-3.20;100.00;101240.63;5082698;28;20422;-46
2022/12/13 02:53:45;;;;;;;68.30;48.93;;;;;;;-3.21;100.00;101240.69;5071258;28;20431;-51
2022/12/13 02:56:12;;;;;;;72.17;47.87;;;;;;;-3.25;100.00;101245.25;5070594;28;20553;-52
2022/12/13 02:58:43;;;;;;;61.20;47.57;;;;;;;-3.29;100.00;101238.59;5071097;28;20458;-53
2022/12/13 03:01:26;;;;;;;57.73;48.47;;;;;;;-3.32;100.00;101238.78;5071214;28;20434;-52
2022/12/13 03:04:07;;;;;;;67.83;48.70;;;;;;;-3.38;100.00;101241.78;5071181;28;20432;-53
2022/12/13 03:06:43;;;;;;;60.40;48.57;;;;;;;-3.43;100.00;101243.81;5070573;28;20462;-50
2022/12/13 03:09:24;;;;;;;61.50;48.37;;;;;;;-3.50;100.00;101245.13;5071000;28;20821;-49
2022/12/13 03:14:59;;;;;;;74.23;49.47;;;;;;;-3.65;100.00;101222.63;5073397;28;20433;-52
2022/12/13 03:17:36;;;;;;;65.03;48.57;;;;;;;-3.73;100.00;101223.06;5079326;28;20497;-49
2022/12/13 03:20:04;;;;;;;66.30;50.07;;;;;;;-3.81;100.00;101225.31;5086590;28;20429;-50
2022/12/13 03:22:49;;;;;;;70.63;50.60;;;;;;;-3.87;100.00;101230.06;5095014;28;21015;-52
2022/12/13 03:25:18;;;;;;;73.80;50.27;;;;;;;-3.96;100.00;101224.47;5094320;28;20458;-52
2022/12/13 03:28:00;;;;;;;66.50;46.93;;;;;;;-4.04;100.00;101224.13;5094865;28;20449;-52
2022/12/13 03:30:30;;;;;;;67.03;48.93;;;;;;;-4.14;100.00;101215.16;5095179;28;20429;-52
2022/12/13 03:32:59;;;;;;;57.70;45.47;;;;;;;-4.21;100.00;101226.84;5094973;28;20429;-52
2022/12/13 03:35:27;;;;;;;62.67;47.40;;;;;;;-4.30;100.00;101219.59;5094271;28;20511;-53
2022/12/13 03:38:11;;;;;;;51.87;43.60;;;;;;;-4.39;100.00;101233.16;5094603;28;20458;-51
2022/12/13 03:40:50;;;;;;;55.73;44.60;;;;;;;-4.47;100.00;101225.81;5094688;28;20436;-48
2022/12/13 03:43:17;;;;;;;71.60;47.93;;;;;;;-4.55;100.00;101232.38;5094482;28;20975;-51
2022/12/13 03:45:50;;;;;;;76.03;49.67;;;;;;;-4.62;100.00;101223.25;5094126;28;20960;-54
2022/12/13 03:48:19;;;;;;;62.50;47.03;;;;;;;-4.69;100.00;101219.34;5094382;28;20457;-53
2022/12/13 03:50:49;;;;;;;61.90;45.00;;;;;;;-4.77;100.00;101219.75;5094825;28;20456;-45
2022/12/13 03:53:17;;;;;;;67.40;47.80;;;;;;;-4.81;100.00;101212.22;5095078;28;20429;-47
2022/12/13 03:55:59;;;;;;;55.97;46.40;;;;;;;-4.88;100.00;101213.50;5094336;28;20461;-45
2022/12/13 03:58:28;;;;;;;56.70;44.80;;;;;;;-4.95;100.00;101205.19;5094864;28;20446;-52
2022/12/13 04:01:03;;;;;;;53.80;43.23;;;;;;;-5.02;100.00;101199.50;5094921;28;20540;-45
2022/12/13 04:03:32;;;;;;;57.83;45.10;;;;;;;-5.09;100.00;101210.34;5094804;28;20480;-46
2022/12/13 04:06:00;;;;;;;65.63;46.23;;;;;;;-5.13;100.00;101208.81;5094044;28;20464;-46
2022/12/13 04:08:28;;;;;;;66.40;43.73;;;;;;;-5.19;100.00;101197.00;5094503;28;20820;-48
2022/12/13 04:10:55;;;;;;;61.17;46.33;;;;;;;-5.24;100.00;101201.63;5094958;28;20441;-48
2022/12/13 04:13:34;;;;;;;66.67;46.77;;;;;;;-5.29;100.00;101195.00;5094094;28;20452;-47
2022/12/13 04:16:02;;;;;;;66.10;45.37;;;;;;;-5.35;100.00;101198.78;5093563;28;20463;-51
2022/12/13 04:18:30;;;;;;;59.53;47.10;;;;;;;-5.38;100.00;101205.91;5091454;28;20540;-50
2022/12/13 04:20:59;;;;;;;66.33;49.20;;;;;;;-5.43;100.00;101203.56;5088411;28;20940;-46
2022/12/13 04:23:26;;;;;;;68.70;47.40;;;;;;;-5.46;100.00;101197.69;5093591;28;20475;-45
2022/12/13 04:25:54;;;;;;;62.03;45.40;;;;;;;-5.46;100.00;101198.53;5092668;28;20994;-48
2022/12/13 04:28:22;;;;;;;64.27;47.13;;;;;;;-5.46;100.00;101198.53;5093904;28;20449;-45
2022/12/13 04:30:50;;;;;;;64.73;49.30;;;;;;;-5.47;100.00;101199.47;5093854;28;20465;-48
2022/12/13 04:33:20;;;;;;;64.73;47.07;;;;;;;-5.46;100.00;101198.53;5093897;28;20426;-49
2022/12/13 04:35:48;;;;;;;69.00;49.20;;;;;;;-5.45;100.00;101204.56;5092415;28;20462;-48
2022/12/13 04:38:17;;;;;;;61.57;49.77;;;;;;;-5.44;100.00;101204.50;5093555;28;20446;-45
2022/12/13 04:40:45;;;;;;;68.40;48.60;;;;;;;-5.43;100.00;101205.31;5093235;28;20434;-50
2022/12/13 04:43:13;;;;;;;68.23;51.83;;;;;;;-5.39;100.00;101197.28;5093287;28;20473;-49
2022/12/13 04:45:40;;;;;;;71.63;48.20;;;;;;;-5.31;100.00;101205.47;5091360;28;20465;-47
2022/12/13 04:48:08;;;;;;;61.17;47.40;;;;;;;-5.24;100.00;101199.03;5092013;28;20463;-49
2022/12/13 04:50:36;;;;;;;63.00;48.43;;;;;;;-5.17;100.00;101208.19;5093471;28;20508;-45
2022/12/13 04:53:04;;;;;;;61.43;46.20;;;;;;;-5.10;100.00;101196.50;5093181;28;20428;-45
2022/12/13 04:55:33;;;;;;;66.40;46.13;;;;;;;-5.05;100.00;101197.06;5092467;28;20839;-45
2022/12/13 04:58:01;;;;;;;69.70;47.43;;;;;;;-4.99;100.00;101197.66;5093134;28;20540;-47
2022/12/13 05:00:28;;;;;;;61.90;50.17;;;;;;;-4.95;100.00;101199.16;5093319;28;20440;-47
2022/12/13 05:02:56;;;;;;;58.30;47.87;;;;;;;-4.90;100.00;101195.38;5093132;28;20469;-46
2022/12/13 05:05:24;;;;;;;58.97;49.80;;;;;;;-4.86;100.00;101194.25;5092381;28;20469;-46
2022/12/13 05:07:51;;;;;;;58.00;46.87;;;;;;;-4.80;100.00;101195.66;5092719;28;20449;-45
2022/12/13 05:10:19;;;;;;;65.97;50.37;;;;;;;-4.72;100.00;101188.28;5093144;28;20878;-45
2022/12/13 05:13:06;;;;;;;56.67;47.40;;;;;;;-4.66;100.00;101178.34;5092910;28;20601;-47
2022/12/13 05:15:34;;;;;;;63.17;49.03;;;;;;;-4.58;100.00;101180.50;5093233;28;20960;-47
2022/12/13 05:18:03;;;;;;;62.63;50.73;;;;;;;-4.53;100.00;101176.69;5092822;28;20441;-51
2022/12/13 05:20:37;;;;;;;68.03;51.70;;;;;;;-4.45;100.00;101176.28;5084410;28;20461;-50
2022/12/13 05:23:05;;;;;;;63.93;48.13;;;;;;;-4.41;100.00;101171.69;5092585;28;20469;-49
2022/12/13 05:25:33;;;;;;;67.33;50.13;;;;;;;-4.34;100.00;101170.41;5092067;28;20474;-52
2022/12/13 05:28:01;;;;;;;60.10;49.93;;;;;;;-4.31;100.00;101165.03;5092680;28;20476;-51
2022/12/13 05:30:50;;;;;;;63.57;49.77;;;;;;;-4.29;100.00;101170.97;5092423;28;20445;-52
2022/12/13 05:33:18;;;;;;;57.13;49.23;;;;;;;-4.25;100.00;101175.91;5092682;28;20425;-52
2022/12/13 05:35:46;;;;;;;70.53;51.43;;;;;;;-4.27;100.00;101169.94;5091384;28;20832;-51
2022/12/13 05:38:13;;;;;;;68.40;53.47;;;;;;;-4.24;100.00;101174.16;5092204;28;20532;-48
2022/12/13 05:40:41;;;;;;;71.43;53.30;;;;;;;-4.21;100.00;101172.19;5092426;28;20440;-47
2022/12/13 05:43:10;;;;;;;74.90;53.63;;;;;;;-4.17;100.00;101171.06;5092210;28;20974;-50
2022/12/13 05:45:50;;;;;;;65.87;52.33;;;;;;;-4.10;100.00;101169.78;5091646;28;20880;-51
2022/12/13 05:48:18;;;;;;;68.83;55.93;;;;;;;-4.08;100.00;101160.09;5092175;28;20832;-52
2022/12/13 05:50:51;;;;;;;86.07;60.83;;;;;;;-4.05;100.00;101166.88;5092257;28;20948;-51
2022/12/13 05:53:38;;;;;;;75.37;53.03;;;;;;;-4.03;100.00;101162.41;5092106;28;20422;-53
2022/12/13 05:56:06;;;;;;;63.30;53.07;;;;;;;-4.01;100.00;101166.63;5091548;28;20468;-48
2022/12/13 05:58:34;;;;;;;64.03;51.67;;;;;;;-4.02;100.00;101164.94;5092124;28;20458;-48
2022/12/13 06:01:09;;;;;;;66.07;51.67;;;;;;;-4.00;100.00;101163.06;5092033;28;20970;-52
2022/12/13 06:03:37;;;;;;;64.47;51.60;;;;;;;-3.99;100.00;101162.16;5092013;28;20560;-54
2022/12/13 06:06:07;;;;;;;84.10;63.80;;;;;;;-3.98;100.00;101166.44;5091101;28;20469;-53
2022/12/13 06:08:35;;;;;;;68.97;54.00;;;;;;;-3.99;100.00;101164.75;5091831;28;20466;-54
2022/12/13 06:11:05;;;;;;;67.93;54.07;;;;;;;-4.00;100.00;101167.44;5092035;28;20433;-48
2022/12/13 06:13:39;;;;;;;61.93;50.90;;;;;;;-4.05;100.00;101159.06;5091843;28;20516;-49
2022/12/13 06:16:12;;;;;;;62.23;50.67;;;;;;;-4.06;100.00;101160.03;5091211;28;20596;-47
2022/12/13 06:18:51;;;;;;;67.67;51.83;;;;;;;-4.07;100.00;101156.56;5086188;28;20453;-48
2022/12/13 06:21:29;;;;;;;70.70;52.90;;;;;;;-4.07;100.00;101147.91;5090858;28;20804;-48
2022/12/13 06:24:13;;;;;;;172.40;93.17;;;;;;;-4.09;100.00;101158.41;5091633;28;20542;-52
2022/12/13 06:26:40;;;;;;;117.17;71.07;;;;;;;-4.09;100.00;101166.22;5091087;28;20556;-48
2022/12/13 06:29:09;;;;;;;96.00;64.47;;;;;;;-4.10;100.00;101167.19;5091439;28;20456;-51
2022/12/13 06:31:38;;;;;;;61.47;54.87;;;;;;;-4.15;100.00;101171.00;5091811;28;20436;-50
2022/12/13 06:34:06;;;;;;;62.13;49.83;;;;;;;-4.20;100.00;101168.66;5091792;28;20432;-47
2022/12/13 06:36:41;;;;;;;70.33;51.53;;;;;;;-4.24;100.00;101172.34;5091113;28;20468;-52
2022/12/13 06:39:09;;;;;;;72.60;50.37;;;;;;;-4.25;100.00;101173.31;5091554;28;20450;-53
2022/12/13 06:41:36;;;;;;;68.40;53.60;;;;;;;-4.29;100.00;101169.19;5091582;28;20440;-54
2022/12/13 06:44:05;;;;;;;74.33;56.03;;;;;;;-4.33;100.00;101175.50;5091617;28;20485;-47
2022/12/13 06:46:32;;;;;;;64.40;51.27;;;;;;;-4.37;100.00;101168.84;5090929;28;20849;-51
2022/12/13 06:49:01;;;;;;;69.53;51.47;;;;;;;-4.44;100.00;101172.72;5094841;28;20518;-47
2022/12/13 06:51:29;;;;;;;63.33;51.10;;;;;;;-4.51;100.00;101168.81;5095740;28;20770;-48
2022/12/13 06:54:00;;;;;;;56.90;47.13;;;;;;;-4.57;100.00;101167.38;5095844;28;20499;-50
2022/12/13 06:56:29;;;;;;;60.80;49.80;;;;;;;-4.65;100.00;101173.97;5094978;28;20469;-46
2022/12/13 06:58:57;;;;;;;57.07;50.50;;;;;;;-4.74;100.00;101175.34;5095480;28;20547;-48
2022/12/13 07:01:28;;;;;;;53.67;45.77;;;;;;;-4.78;100.00;101181.63;5095558;28;20476;-49
2022/12/13 07:04:07;;;;;;;62.97;49.53;;;;;;;-4.82;100.00;101176.72;5095337;28;20804;-46
2022/12/13 07:06:55;;;;;;;62.70;47.40;;;;;;;-4.82;100.00;101176.72;5094658;28;20461;-47
2022/12/13 07:09:29;;;;;;;57.93;48.20;;;;;;;-4.78;100.00;101175.63;5095429;28;20450;-50
2022/12/13 07:11:57;;;;;;;64.70;48.90;;;;;;;-4.72;100.00;101180.47;5095393;28;20433;-47
2022/12/13 07:14:24;;;;;;;55.57;49.57;;;;;;;-4.70;100.00;101176.00;5095254;28;20425;-51
2022/12/13 07:16:52;;;;;;;65.97;49.60;;;;;;;-4.65;100.00;101187.81;5094388;28;20471;-52
2022/12/13 07:19:31;;;;;;;64.60;49.00;;;;;;;-4.59;100.00;101181.41;5085736;28;20450;-51
2022/12/13 07:22:04;;;;;;;59.77;48.87;;;;;;;-4.49;100.00;101182.56;5095036;28;20433;-50
2022/12/13 07:24:33;;;;;;;64.63;49.57;;;;;;;-4.39;100.00;101188.88;5095117;28;21031;-47
2022/12/13 07:27:01;;;;;;;61.67;49.60;;;;;;;-4.29;100.00;101181.38;5094485;28;20495;-50
2022/12/13 07:29:29;;;;;;;63.67;50.37;;;;;;;-4.22;100.00;101183.53;5094734;28;20455;-49
2022/12/13 07:31:57;;;;;;;63.73;53.90;;;;;;;-4.14;100.00;101186.50;5095060;28;20541;-47
2022/12/13 07:34:28;;;;;;;72.00;53.80;;;;;;;-4.07;100.00;101169.59;5094653;28;20468;-50
2022/12/13 07:36:57;;;;;;;68.40;53.23;;;;;;;-3.99;100.00;101171.72;5094033;28;20460;-51
2022/12/13 07:39:25;;;;;;;73.67;52.53;;;;;;;-3.92;100.00;101176.47;5094704;28;20537;-52
2022/12/13 07:41:54;;;;;;;68.80;52.50;;;;;;;-3.84;100.00;101173.41;5094563;28;20448;-51
2022/12/13 07:44:22;;;;;;;71.03;49.57;;;;;;;-3.74;100.00;101184.09;5094735;28;20473;-50
2022/12/13 07:46:50;;;;;;;60.00;48.07;;;;;;;-3.67;100.00;101175.78;5093951;28;20457;-48
2022/12/13 07:49:17;;;;;;;65.37;49.50;;;;;;;-3.59;100.00;101170.13;5094202;28;21059;-49
2022/12/13 07:51:45;;;;;;;64.60;50.17;;;;;;;-3.54;100.00;101176.69;5094550;28;20448;-47
2022/12/13 07:54:14;;;;;;;58.80;48.57;;;;;;;-3.48;100.00;101180.69;5094437;28;20430;-50
2022/12/13 07:56:44;;;;;;;65.93;49.73;;;;;;;-3.39;100.00;101186.16;5093594;28;20472;-51
2022/12/13 07:59:12;;;;;;;68.87;53.83;;;;;;;-3.29;100.00;101178.59;5093585;28;20871;-49
2022/12/13 08:01:40;;;;;;;57.90;49.53;;;;;;;-3.21;100.00;101186.78;5094394;28;20439;-52
2022/12/13 08:04:08;;;;;;;62.73;50.10;;;;;;;-3.14;100.00;101174.19;5094166;28;20429;-46
2022/12/13 08:06:36;;;;;;;64.97;51.83;;;;;;;-3.06;100.00;101172.75;5093539;28;20485;-47
2022/12/13 08:09:04;;;;;;;66.53;52.47;;;;;;;-2.99;100.00;101166.22;5093937;28;20795;-49
2022/12/13 08:11:34;;;;;;;62.23;49.40;;;;;;;-2.90;100.00;101164.75;5094102;28;20932;-48
2022/12/13 08:14:01;;;;;;;61.67;49.53;;;;;;;-2.84;100.00;101165.16;5094156;28;20425;-49
2022/12/13 08:16:30;;;;;;;70.60;51.60;;;;;;;-2.74;100.00;101169.78;5093294;28;21010;-45
2022/12/13 08:18:59;;;;;;;59.27;49.63;;;;;;;-2.69;100.00;101168.56;5087161;28;20477;-47
2022/12/13 08:21:35;;;;;;;72.30;54.97;;;;;;;-2.66;100.00;101172.75;5092994;28;20437;-45
2022/12/13 08:24:23;;;;;;;57.37;49.33;;;;;;;-2.62;100.00;101161.97;5093631;28;20430;-46
2022/12/13 08:26:52;;;;;;;59.30;52.83;;;;;;;-2.56;100.00;101163.34;5093112;28;21094;-45
2022/12/13 08:29:20;;;;;;;65.77;50.57;;;;;;;-2.49;100.00;101165.47;5093783;28;20453;-45
2022/12/13 08:32:00;;;;;;;60.47;49.10;;;;;;;-2.41;100.00;101163.16;5093741;28;20444;-49
2022/12/13 08:34:28;;;;;;;60.47;49.40;;;;;;;-2.34;100.00;101158.38;5093844;28;20935;-45
2022/12/13 08:36:56;;;;;;;56.20;50.10;;;;;;;-2.28;100.00;101156.19;5093008;28;20920;-45
2022/12/13 08:39:30;;;;;;;66.37;51.63;;;;;;;-2.20;100.00;101163.47;5093692;28;20449;-45
2022/12/13 08:42:04;;;;;;;65.70;52.37;;;;;;;-2.15;100.00;101169.22;5093537;28;20433;-47
2022/12/13 08:44:45;;;;;;;61.47;53.57;;;;;;;-2.06;100.00;101162.56;5092963;28;20530;-45
2022/12/13 08:47:12;;;;;;;53.37;47.80;;;;;;;-2.00;100.00;101165.53;5093527;28;20430;-45
2022/12/13 08:49:53;;;;;;;59.77;50.60;;;;;;;-1.97;100.00;101162.72;5117398;22;20538;-48
2022/12/13 08:52:22;;;;;;;53.40;47.57;;;;;;;-1.92;100.00;101163.25;5114130;28;20504;-49
2022/12/13 08:54:50;;;;;;;57.03;48.50;;;;;;;-1.86;100.00;101164.59;5113167;27;20479;-48
2022/12/13 08:57:19;;;;;;;60.00;48.00;;;;;;;-1.78;100.00;101173.59;5114133;28;20428;-48
2022/12/13 08:59:47;;;;;;;53.73;48.03;;;;;;;-1.75;100.00;101175.16;5113880;28;20453;-51
2022/12/13 09:02:15;;;;;;;55.73;46.40;;;;;;;-1.70;100.00;101173.03;5113657;28;20953;-51
2022/12/13 09:04:43;;;;;;;64.53;49.57;;;;;;;-1.64;100.00;101163.94;5112952;27;20433;-47
2022/12/13 09:07:11;;;;;;;64.40;50.90;;;;;;;-1.60;100.00;101170.59;5113770;28;20432;-48
2022/12/13 09:09:38;;;;;;;52.70;46.87;;;;;;;-1.59;100.00;101167.91;5113504;28;20978;-48
2022/12/13 09:12:07;;;;;;;55.93;47.57;;;;;;;-1.56;100.00;101165.06;5113800;27;20432;-48
2022/12/13 09:14:56;;;;;;;53.40;47.47;;;;;;;-1.54;100.00;101168.41;5113337;27;20425;-47
2022/12/13 09:17:30;;;;;;;52.97;46.47;;;;;;;-1.48;100.00;101169.75;5113543;28;20435;-48
2022/12/13 09:20:06;;;;;;;54.20;46.70;;;;;;;-1.43;100.00;101160.63;5105988;28;20824;-46
2022/12/13 09:22:54;;;;;;;55.37;48.50;;;;;;;-1.39;100.00;101166.47;5093158;28;20455;-48
2022/12/13 09:25:28;;;;;;;61.80;50.67;;;;;;;-1.36;100.00;101174.94;5092438;28;20514;-45
2022/12/13 09:28:04;;;;;;;54.57;48.57;;;;;;;-1.31;100.00;101172.81;5092809;28;20991;-47
2022/12/13 09:30:33;;;;;;;61.23;48.47;;;;;;;-1.33;100.00;101174.72;5092854;28;20878;-48
2022/12/13 09:33:01;;;;;;;54.00;48.30;;;;;;;-1.33;100.00;101172.09;5093296;28;20429;-51
2022/12/13 09:35:48;;;;;;;54.73;47.87;;;;;;;-1.34;100.00;101177.44;5092181;28;20820;-46
2022/12/13 09:38:16;;;;;;;53.63;47.77;;;;;;;-1.39;100.00;101169.94;5092544;28;20975;-45
2022/12/13 09:40:47;;;;;;;54.83;48.90;;;;;;;-1.37;100.00;101164.56;5092516;28;20947;-47
2022/12/13 09:43:24;;;;;;;54.50;48.93;;;;;;;-1.35;100.00;101157.47;5092876;28;20834;-50
2022/12/13 09:46:06;;;;;;;61.00;50.00;;;;;;;-1.35;100.00;101157.47;5091787;28;20488;-47
2022/12/13 09:48:51;;;;;;;66.77;53.83;;;;;;;-1.39;100.00;101151.63;5092568;28;20556;-50
2022/12/13 09:51:29;;;;;;;56.03;49.17;;;;;;;-1.37;100.00;101149.72;5092902;28;20433;-49
2022/12/13 09:54:18;;;;;;;54.03;48.07;;;;;;;-1.39;100.00;101146.38;5092563;28;20417;-48
2022/12/13 09:56:49;;;;;;;61.33;50.27;;;;;;;-1.34;100.00;101144.25;5091808;28;20514;-48
2022/12/13 09:59:19;;;;;;;60.50;50.40;;;;;;;-1.27;100.00;101142.03;5092548;28;20540;-47
2022/12/13 10:01:48;;;;;;;56.33;48.83;;;;;;;-1.20;100.00;101135.44;5092216;28;20429;-49
2022/12/13 10:04:16;;;;;;;56.20;49.80;;;;;;;-1.16;100.00;101131.63;5092328;28;20769;-47
2022/12/13 10:06:44;;;;;;;53.37;47.57;;;;;;;-1.11;100.00;101130.34;5091603;28;20483;-50
2022/12/13 10:09:13;;;;;;;63.90;49.03;;;;;;;-1.01;100.00;101132.28;5092166;28;20453;-50
2022/12/13 10:11:48;;;;;;;53.33;47.30;;;;;;;-0.93;100.00;101125.56;5092146;28;20430;-52
2022/12/13 10:14:23;;;;;;;51.30;45.77;;;;;;;-0.90;100.00;101127.09;5092016;28;20519;-47
2022/12/13 10:16:56;;;;;;;54.30;48.13;;;;;;;-0.89;100.00;101126.13;5091337;28;20465;-47
2022/12/13 10:19:29;;;;;;;53.27;47.83;;;;;;;-0.83;100.00;101117.81;5108565;28;20994;-50
2022/12/13 10:21:58;;;;;;;51.00;46.00;;;;;;;-0.76;100.00;101108.56;5091635;28;20433;-50
2022/12/13 10:24:30;;;;;;;52.77;47.00;;;;;;;-0.77;100.00;101112.13;5091947;28;20451;-49
2022/12/13 10:27:12;;;;;;;56.43;48.33;;;;;;;-0.76;100.00;101109.41;5091655;28;20479;-48
2022/12/13 10:30:06;;;;;;;52.20;46.67;;;;;;;-0.68;100.00;101111.44;5091969;28;20452;-46
2022/12/13 10:32:45;;;;;;;49.87;44.57;;;;;;;-0.66;100.00;101115.59;5092010;28;20437;-45
2022/12/13 10:35:25;;;;;;;52.63;45.43;;;;;;;-0.65;100.00;101112.06;5091361;28;20472;-48
2022/12/13 10:37:53;;;;;;;50.63;45.73;;;;;;;-0.65;100.00;101106.81;5091986;28;20425;-48
2022/12/13 10:40:31;;;;;;;51.47;45.77;;;;;;;-0.63;100.00;101112.75;5091944;28;20438;-48
2022/12/13 10:43:07;;;;;;;49.30;44.13;;;;;;;-0.57;100.00;101107.06;5091991;28;20478;-46
2022/12/13 10:45:35;;;;;;;52.57;46.47;;;;;;;-0.59;100.00;101108.13;5091064;28;20555;-51
2022/12/13 10:48:05;;;;;;;55.70;49.83;;;;;;;-0.59;100.00;101105.50;5091671;28;20520;-49
2022/12/13 10:50:32;;;;;;;50.67;45.50;;;;;;;-0.53;100.00;101107.66;5092119;28;20437;-49
2022/12/13 10:53:01;;;;;;;50.40;45.10;;;;;;;-0.45;100.00;101094.00;5091731;28;20512;-49
2022/12/13 10:55:31;;;;;;;58.63;49.33;;;;;;;-0.51;100.00;101084.81;5091125;28;20465;-47
2022/12/13 10:58:01;;;;;;;53.80;48.00;;;;;;;-0.56;100.00;101090.41;5091637;28;20800;-50
2022/12/13 11:00:33;;;;;;;55.37;47.47;;;;;;;-0.57;100.00;101082.66;5091657;28;20436;-50
2022/12/13 11:03:01;;;;;;;52.97;46.63;;;;;;;-0.58;100.00;101089.69;5091734;28;20432;-49
2022/12/13 11:05:33;;;;;;;54.17;48.30;;;;;;;-0.52;100.00;101080.53;5090838;28;20464;-52
2022/12/13 11:08:15;;;;;;;56.43;48.60;;;;;;;-0.52;100.00;101072.66;5091499;28;20429;-49
2022/12/13 11:10:43;;;;;;;56.33;49.03;;;;;;;-0.50;100.00;101077.78;5091685;28;20772;-49
2022/12/13 11:13:24;;;;;;;52.20;46.60;;;;;;;-0.43;100.00;101065.88;5091582;28;20438;-49
2022/12/13 11:15:55;;;;;;;58.47;47.70;;;;;;;-0.41;100.00;101056.94;5090907;28;20457;-51
2022/12/13 11:18:26;;;;;;;58.20;51.90;;;;;;;-0.35;100.00;101063.50;5103559;28;20444;-49
2022/12/13 11:20:58;;;;;;;55.17;49.33;;;;;;;-0.32;100.00;101053.63;5097293;28;20437;-47
2022/12/13 11:23:29;;;;;;;57.30;50.77;;;;;;;-0.27;100.00;101053.28;5091631;28;20488;-51
2022/12/13 11:26:05;;;;;;;55.17;48.70;;;;;;;-0.30;100.00;101048.28;5090728;28;20977;-49